createdAt,value
2018-10-09T00:01:11.984Z,100426.87
2018-10-09T00:03:41.410Z,100430.17
2018-10-09T00:06:10.749Z,100425.02
2018-10-09T00:08:40.048Z,100420.98
2018-10-09T00:11:10.745Z,100418.52
2018-10-09T00:13:40.909Z,100419.42
2018-10-09T00:16:11.005Z,100419.42
2018-10-09T00:21:23.038Z,100410.17
2018-10-09T00:23:52.290Z,100419.97
2018-10-09T00:26:52.076Z,100422.75
2018-10-09T00:29:21.033Z,100419.45
2018-10-09T00:31:53.277Z,100422.75
2018-10-09T00:34:22.937Z,100422.45
2018-10-09T00:36:52.622Z,100427.00
2018-10-09T00:39:22.385Z,100424.40
2018-10-09T00:41:52.055Z,100418.84
2018-10-09T00:44:21.184Z,100421.62
2018-10-09T00:46:50.188Z,100420.28
2018-10-09T00:49:19.859Z,100427.52
2018-10-09T00:51:49.200Z,100417.86
2018-10-09T00:54:18.880Z,100411.97
2018-10-09T00:56:47.988Z,100420.03
2018-10-09T00:59:18.419Z,100425.19
2018-10-09T01:01:47.913Z,100424.67
2018-10-09T01:04:17.738Z,100424.88
2018-10-09T01:06:46.771Z,100427.88
2018-10-09T01:09:16.149Z,100421.47
2018-10-09T01:11:44.992Z,100425.59
2018-10-09T01:14:15.272Z,100431.48
2018-10-09T01:16:45.236Z,100429.09
2018-10-09T01:19:16.201Z,100429.22
2018-10-09T01:21:45.413Z,100425.41
2018-10-09T01:24:15.325Z,100432.28
2018-10-09T01:26:45.011Z,100434.32
2018-10-09T01:29:14.432Z,100440.03
2018-10-09T01:31:43.447Z,100436.19
2018-10-09T01:34:14.450Z,100434.32
2018-10-09T01:36:44.157Z,100433.31
2018-10-09T01:39:13.397Z,100426.27
2018-10-09T01:41:42.966Z,100440.52
2018-10-09T01:44:12.146Z,100443.72
2018-10-09T01:46:41.520Z,100447.75
2018-10-09T01:49:11.376Z,100454.59
2018-10-09T01:51:40.611Z,100455.42
2018-10-09T01:54:11.704Z,100444.73
2018-10-09T01:56:41.930Z,100437.80
2018-10-09T01:59:11.800Z,100442.53
2018-10-09T02:01:41.635Z,100439.41
2018-10-09T02:04:11.489Z,100439.72
2018-10-09T02:06:40.748Z,100438.38
2018-10-09T02:09:10.786Z,100436.30
2018-10-09T02:11:40.624Z,100440.39
2018-10-09T02:14:10.562Z,100433.67
2018-10-09T02:16:40.305Z,100426.43
2018-10-09T02:19:10.024Z,100418.45
2018-10-09T02:21:39.113Z,100418.77
2018-10-09T02:24:08.457Z,100437.66
2018-10-09T02:26:38.121Z,100439.22
2018-10-09T02:29:07.982Z,100421.84
2018-10-09T02:31:37.395Z,100427.30
2018-10-09T02:34:10.807Z,100430.52
2018-10-09T02:36:41.038Z,100427.00
2018-10-09T02:39:12.260Z,100431.86
2018-10-09T02:41:41.409Z,100414.95
2018-10-09T02:44:11.661Z,100407.72
2018-10-09T02:46:41.696Z,100396.66
2018-10-09T02:49:11.404Z,100390.25
2018-10-09T02:51:41.577Z,100405.55
2018-10-09T02:54:11.462Z,100403.16
2018-10-09T02:56:40.771Z,100399.44
2018-10-09T02:59:10.848Z,100399.74
2018-10-09T03:01:41.115Z,100407.50
2018-10-09T03:04:10.359Z,100405.03
2018-10-09T03:06:39.756Z,100396.91
2018-10-09T03:09:10.804Z,100398.25
2018-10-09T03:11:40.247Z,100399.91
2018-10-09T03:14:10.102Z,100406.32
2018-10-09T03:16:40.097Z,100409.31
2018-10-09T03:19:11.573Z,100412.80
2018-10-09T03:21:40.942Z,100416.61
2018-10-09T03:24:10.375Z,100419.23
2018-10-09T03:26:39.652Z,100405.55
2018-10-09T03:29:09.065Z,100401.77
2018-10-09T03:31:38.380Z,100405.03
2018-10-09T03:34:09.002Z,100395.27
2018-10-09T03:36:39.699Z,100396.39
2018-10-09T03:39:12.070Z,100391.84
2018-10-09T03:41:41.374Z,100392.94
2018-10-09T03:44:10.672Z,100382.48
2018-10-09T03:46:40.467Z,100374.95
2018-10-09T03:49:10.521Z,100371.69
2018-10-09T03:51:40.145Z,100363.31
2018-10-09T03:54:11.732Z,100361.97
2018-10-09T03:56:40.827Z,100363.75
2018-10-09T03:59:10.576Z,100356.73
2018-10-09T04:01:40.774Z,100358.29
2018-10-09T04:04:10.548Z,100358.29
2018-10-09T04:06:40.583Z,100362.63
2018-10-09T04:09:13.147Z,100364.79
2018-10-09T04:11:42.921Z,100363.53
2018-10-09T04:14:12.800Z,100358.89
2018-10-09T04:16:42.561Z,100359.11
2018-10-09T04:19:12.441Z,100367.48
2018-10-09T04:21:41.752Z,100366.44
2018-10-09T04:24:10.714Z,100373.77
2018-10-09T04:26:40.010Z,100363.84
2018-10-09T04:29:09.484Z,100372.94
2018-10-09T04:31:39.225Z,100378.40
2018-10-09T04:34:10.325Z,100381.14
2018-10-09T04:36:40.077Z,100379.88
2018-10-09T04:39:10.503Z,100378.02
2018-10-09T04:41:40.941Z,100380.80
2018-10-09T04:44:10.108Z,100380.36
2018-10-09T04:49:20.661Z,100388.56
2018-10-09T04:51:50.190Z,100397.53
2018-10-09T04:54:19.634Z,100387.91
2018-10-09T04:56:49.208Z,100390.08
2018-10-09T04:59:19.045Z,100391.72
2018-10-09T05:01:48.827Z,100392.84
2018-10-09T05:04:17.942Z,100399.57
2018-10-09T05:06:47.141Z,100404.13
2018-10-09T05:09:16.171Z,100410.77
2018-10-09T05:11:48.365Z,100410.23
2018-10-09T05:14:17.525Z,100408.07
2018-10-09T05:16:47.913Z,100419.13
2018-10-09T05:19:17.579Z,100404.64
2018-10-09T05:21:46.668Z,100411.45
2018-10-09T05:24:15.804Z,100407.11
2018-10-09T05:26:44.832Z,100396.36
2018-10-09T05:29:13.893Z,100398.22
2018-10-09T05:31:43.107Z,100401.44
2018-10-09T05:34:12.794Z,100398.00
2018-10-09T05:36:43.848Z,100391.80
2018-10-09T05:39:12.909Z,100394.71
2018-10-09T05:41:42.036Z,100384.26
2018-10-09T05:44:11.198Z,100376.19
2018-10-09T05:46:41.301Z,100370.52
2018-10-09T05:49:11.248Z,100367.83
2018-10-09T05:51:40.477Z,100364.09
2018-10-09T05:54:09.996Z,100369.99
2018-10-09T05:56:40.579Z,100376.03
2018-10-09T05:59:10.440Z,100373.72
2018-10-09T06:01:40.558Z,100378.74
2018-10-09T06:04:09.588Z,100390.23
2018-10-09T06:06:39.787Z,100387.70
2018-10-09T06:09:10.291Z,100386.80
2018-10-09T06:11:39.742Z,100402.58
2018-10-09T06:14:09.412Z,100419.41
2018-10-09T06:16:39.407Z,100428.34
2018-10-09T06:19:09.362Z,100431.94
2018-10-09T06:21:39.122Z,100422.83
2018-10-09T06:24:08.534Z,100429.03
2018-10-09T06:26:38.500Z,100438.83
2018-10-09T06:29:07.894Z,100440.17
2018-10-09T06:31:37.411Z,100433.53
2018-10-09T06:34:07.461Z,100443.91
2018-10-09T06:36:37.699Z,100435.00
2018-10-09T06:39:09.254Z,100436.65
2018-10-09T06:41:38.816Z,100439.72
2018-10-09T06:44:08.506Z,100444.50
2018-10-09T06:46:38.344Z,100434.56
2018-10-09T06:49:08.265Z,100440.24
2018-10-09T06:51:37.421Z,100444.88
2018-10-09T06:54:07.457Z,100451.09
2018-10-09T06:56:36.428Z,100450.42
2018-10-09T06:59:06.343Z,100454.24
2018-10-09T07:01:35.986Z,100454.47
2018-10-09T07:04:05.392Z,100446.31
2018-10-09T07:06:34.474Z,100451.55
2018-10-09T07:09:03.675Z,100456.64
2018-10-09T07:11:32.648Z,100457.67
2018-10-09T07:14:01.823Z,100452.27
2018-10-09T07:16:31.327Z,100456.00
2018-10-09T07:19:01.552Z,100464.43
2018-10-09T07:21:30.490Z,100461.89
2018-10-09T07:23:59.451Z,100463.76
2018-10-09T07:26:28.351Z,100467.58
2018-10-09T07:28:57.594Z,100458.14
2018-10-09T07:31:26.595Z,100459.87
2018-10-09T07:33:56.513Z,100460.28
2018-10-09T07:36:25.553Z,100467.46
2018-10-09T07:38:55.216Z,100469.70
2018-10-09T07:41:24.821Z,100473.49
2018-10-09T07:43:53.792Z,100464.66
2018-10-09T07:46:23.759Z,100475.96
2018-10-09T07:48:53.548Z,100481.72
2018-10-09T07:51:22.494Z,100486.36
2018-10-09T07:53:52.472Z,100498.11
2018-10-09T07:56:21.411Z,100500.92
2018-10-09T07:58:51.083Z,100501.59
2018-10-09T08:01:20.787Z,100499.27
2018-10-09T08:03:49.703Z,100508.22
2018-10-09T08:06:18.755Z,100506.13
2018-10-09T08:08:47.743Z,100507.02
2018-10-09T08:11:16.635Z,100493.53
2018-10-09T08:13:45.713Z,100494.87
2018-10-09T08:16:15.264Z,100492.48
2018-10-09T08:19:15.454Z,100500.27
2018-10-09T08:21:44.383Z,100496.07
2018-10-09T08:24:13.399Z,100504.80
2018-10-09T08:26:42.439Z,100493.20
2018-10-09T08:29:11.838Z,100492.09
2018-10-09T08:31:41.059Z,100490.61
2018-10-09T08:34:10.719Z,100488.88
2018-10-09T08:36:40.524Z,100492.39
2018-10-09T08:39:10.145Z,100484.23
2018-10-09T08:41:39.618Z,100479.82
2018-10-09T08:44:09.620Z,100477.62
2018-10-09T08:46:39.358Z,100479.52
2018-10-09T08:49:09.083Z,100486.04
2018-10-09T08:51:38.537Z,100476.56
2018-10-09T08:54:08.573Z,100487.42
2018-10-09T08:56:37.497Z,100488.27
2018-10-09T08:59:07.581Z,100494.09
2018-10-09T09:01:37.327Z,100489.91
2018-10-09T09:04:06.470Z,100493.40
2018-10-09T09:06:35.420Z,100493.20
2018-10-09T09:09:06.012Z,100495.50
2018-10-09T09:11:34.911Z,100503.23
2018-10-09T09:14:04.444Z,100500.30
2018-10-09T09:16:34.785Z,100499.59
2018-10-09T09:19:04.319Z,100500.48
2018-10-09T09:21:33.366Z,100510.02
2018-10-09T09:24:02.867Z,100510.38
2018-10-09T09:26:31.835Z,100500.92
2018-10-09T09:29:00.598Z,100510.25
2018-10-09T09:31:29.790Z,100513.42
2018-10-09T09:33:59.555Z,100507.63
2018-10-09T09:36:29.020Z,100510.04
2018-10-09T09:38:58.365Z,100504.87
2018-10-09T09:41:27.281Z,100503.17
2018-10-09T09:43:56.098Z,100493.05
2018-10-09T09:46:26.018Z,100495.66
2018-10-09T09:48:55.512Z,100499.48
2018-10-09T09:51:24.306Z,100499.19
2018-10-09T09:53:53.777Z,100498.59
2018-10-09T09:56:22.600Z,100495.28
2018-10-09T09:58:52.085Z,100496.80
2018-10-09T10:01:28.340Z,100502.62
2018-10-09T10:03:57.245Z,100494.13
2018-10-09T10:06:26.195Z,100509.91
2018-10-09T10:08:55.186Z,100509.88
2018-10-09T10:11:24.281Z,100506.30
2018-10-09T10:13:53.353Z,100498.59
2018-10-09T10:16:23.196Z,100506.52
2018-10-09T10:18:52.751Z,100507.34
2018-10-09T10:21:21.756Z,100502.99
2018-10-09T10:23:50.579Z,100503.94
2018-10-09T10:26:20.460Z,100495.25
2018-10-09T10:28:49.443Z,100491.48
2018-10-09T10:31:18.471Z,100487.00
2018-10-09T10:33:48.914Z,100495.10
2018-10-09T10:36:17.932Z,100493.75
2018-10-09T10:38:47.425Z,100487.50
2018-10-09T10:41:16.264Z,100491.05
2018-10-09T10:43:45.138Z,100480.75
2018-10-09T10:46:15.076Z,100498.16
2018-10-09T10:49:01.860Z,100493.72
2018-10-09T10:51:32.242Z,100488.50
2018-10-09T10:54:01.929Z,100497.89
2018-10-09T10:56:30.792Z,100491.78
2018-10-09T10:59:00.376Z,100487.14
2018-10-09T11:01:30.125Z,100492.72
2018-10-09T11:03:58.903Z,100484.59
2018-10-09T11:06:27.911Z,100498.86
2018-10-09T11:08:56.814Z,100485.85
2018-10-09T11:11:25.644Z,100492.02
2018-10-09T11:13:54.596Z,100486.33
2018-10-09T11:16:24.152Z,100489.03
2018-10-09T11:18:53.664Z,100484.97
2018-10-09T11:21:22.642Z,100473.73
2018-10-09T11:23:51.468Z,100468.45
2018-10-09T11:26:20.490Z,100463.05
2018-10-09T11:28:49.404Z,100465.69
2018-10-09T11:31:18.950Z,100465.16
2018-10-09T11:33:48.460Z,100470.80
2018-10-09T11:36:17.454Z,100465.84
2018-10-09T11:38:46.756Z,100457.62
2018-10-09T11:41:15.677Z,100466.98
2018-10-09T11:43:44.635Z,100468.14
2018-10-09T11:46:14.344Z,100468.58
2018-10-09T11:48:44.615Z,100468.45
2018-10-09T11:51:13.527Z,100464.05
2018-10-09T11:53:43.628Z,100464.41
2018-10-09T11:56:12.512Z,100450.15
2018-10-09T11:58:42.514Z,100459.66
2018-10-09T12:01:12.151Z,100460.57
2018-10-09T12:03:41.497Z,100467.15
2018-10-09T12:06:10.515Z,100466.48
2018-10-09T12:08:40.974Z,100457.50
2018-10-09T12:11:09.986Z,100447.84
2018-10-09T12:13:39.263Z,100458.52
2018-10-09T12:16:08.796Z,100463.13
2018-10-09T12:18:39.270Z,100453.78
2018-10-09T12:21:08.590Z,100457.57
2018-10-09T12:23:37.663Z,100455.13
2018-10-09T12:26:06.818Z,100459.71
2018-10-09T12:28:36.892Z,100462.16
2018-10-09T12:31:06.629Z,100463.59
2018-10-09T12:33:36.450Z,100465.71
2018-10-09T12:36:06.524Z,100465.89
2018-10-09T12:38:36.387Z,100464.36
2018-10-09T12:41:05.458Z,100456.08
2018-10-09T12:43:34.528Z,100461.48
2018-10-09T12:46:04.553Z,100454.20
2018-10-09T12:48:34.204Z,100445.95
2018-10-09T12:51:03.038Z,100456.25
2018-10-09T12:53:32.879Z,100443.14
2018-10-09T12:56:01.785Z,100441.44
2018-10-09T12:58:31.706Z,100442.31
2018-10-09T13:01:01.220Z,100453.13
2018-10-09T13:03:30.114Z,100465.88
2018-10-09T13:05:58.993Z,100463.78
2018-10-09T13:08:27.954Z,100455.72
2018-10-09T13:10:57.142Z,100458.38
2018-10-09T13:13:26.447Z,100467.81
2018-10-09T13:15:56.339Z,100480.98
2018-10-09T13:18:25.883Z,100477.87
2018-10-09T13:20:54.892Z,100487.49
2018-10-09T13:23:24.167Z,100489.91
2018-10-09T13:25:53.282Z,100488.73
2018-10-09T13:28:22.841Z,100488.40
2018-10-09T13:30:51.852Z,100483.39
2018-10-09T13:33:21.411Z,100484.64
2018-10-09T13:35:50.309Z,100484.45
2018-10-09T13:38:19.666Z,100470.41
2018-10-09T13:40:48.591Z,100461.19
2018-10-09T13:43:17.877Z,100459.83
2018-10-09T13:45:47.324Z,100456.47
2018-10-09T13:48:16.719Z,100460.47
2018-10-09T13:50:45.710Z,100452.02
2018-10-09T13:53:15.793Z,100452.78
2018-10-09T13:55:44.697Z,100444.09
2018-10-09T13:58:13.713Z,100449.78
2018-10-09T14:00:43.132Z,100442.50
2018-10-09T14:03:12.354Z,100441.39
2018-10-09T14:05:41.336Z,100427.93
2018-10-09T14:08:10.539Z,100438.91
2018-10-09T14:10:39.737Z,100430.81
2018-10-09T14:13:09.391Z,100436.22
2018-10-09T14:15:39.030Z,100434.39
2018-10-09T14:18:08.679Z,100434.63
2018-10-09T14:20:38.055Z,100424.88
2018-10-09T14:23:08.149Z,100432.70
2018-10-09T14:25:39.275Z,100433.44
2018-10-09T14:28:08.831Z,100434.80
2018-10-09T14:30:38.520Z,100438.27
2018-10-09T14:33:08.265Z,100435.22
2018-10-09T14:35:38.776Z,100434.34
2018-10-09T14:41:25.044Z,100446.50
2018-10-09T14:43:54.114Z,100450.26
2018-10-09T14:46:23.639Z,100442.33
2018-10-09T14:48:53.305Z,100440.58
2018-10-09T14:51:23.027Z,100429.19
2018-10-09T14:53:53.350Z,100433.77
2018-10-09T14:59:12.422Z,100446.45
2018-10-09T15:01:42.234Z,100442.31
2018-10-09T15:04:11.393Z,100432.80
2018-10-09T15:06:41.142Z,100432.80
2018-10-09T15:09:12.243Z,100432.98
2018-10-09T15:11:41.483Z,100431.31
2018-10-09T15:14:11.429Z,100439.89
2018-10-09T15:16:40.787Z,100443.11
2018-10-09T15:19:11.126Z,100437.36
2018-10-09T15:21:41.027Z,100444.88
2018-10-09T15:26:55.042Z,100429.97
2018-10-09T15:29:24.149Z,100435.92
2018-10-09T15:31:54.209Z,100441.20
2018-10-09T15:34:24.917Z,100442.73
2018-10-09T15:36:54.561Z,100438.62
2018-10-09T15:39:23.608Z,100442.28
2018-10-09T15:41:52.492Z,100443.74
2018-10-09T15:44:21.501Z,100439.10
2018-10-09T15:46:51.138Z,100428.74
2018-10-09T15:49:22.651Z,100437.24
2018-10-09T15:51:52.643Z,100441.72
2018-10-09T15:54:23.348Z,100437.61
2018-10-09T15:56:52.384Z,100439.95
2018-10-09T15:59:22.021Z,100443.70
2018-10-09T16:01:51.794Z,100443.63
2018-10-09T16:04:20.849Z,100441.42
2018-10-09T16:06:49.702Z,100445.87
2018-10-09T16:09:18.983Z,100451.16
2018-10-09T16:11:47.944Z,100442.67
2018-10-09T16:14:17.349Z,100445.08
2018-10-09T16:16:46.639Z,100447.41
2018-10-09T16:19:17.018Z,100455.36
2018-10-09T16:21:46.034Z,100452.33
2018-10-09T16:24:15.109Z,100451.08
2018-10-09T16:26:44.438Z,100450.73
2018-10-09T16:29:14.206Z,100447.31
2018-10-09T16:31:43.483Z,100439.16
2018-10-09T16:34:13.290Z,100445.55
2018-10-09T16:36:43.995Z,100444.44
2018-10-09T16:39:14.093Z,100445.25
2018-10-09T16:41:44.009Z,100445.48
2018-10-09T16:44:13.587Z,100457.61
2018-10-09T16:46:43.709Z,100452.81
2018-10-09T16:49:13.296Z,100450.34
2018-10-09T16:51:42.283Z,100450.87
2018-10-09T16:54:12.430Z,100458.59
2018-10-09T16:56:41.567Z,100466.53
2018-10-09T16:59:12.269Z,100472.97
2018-10-09T17:01:41.755Z,100471.58
2018-10-09T17:04:11.965Z,100472.92
2018-10-09T17:06:41.277Z,100466.11
2018-10-09T17:09:11.897Z,100478.84
2018-10-09T17:11:41.881Z,100473.67
2018-10-09T17:14:11.768Z,100486.62
2018-10-09T17:16:41.711Z,100481.83
2018-10-09T17:19:13.413Z,100490.48
2018-10-09T17:21:42.929Z,100491.61
2018-10-09T17:24:11.898Z,100480.60
2018-10-09T17:26:40.946Z,100478.43
2018-10-09T17:29:10.012Z,100477.91
2018-10-09T17:31:39.145Z,100463.08
2018-10-09T17:34:09.114Z,100486.29
2018-10-09T17:36:39.068Z,100488.46
2018-10-09T17:39:10.110Z,100490.41
2018-10-09T17:41:40.411Z,100485.61
2018-10-09T17:44:10.025Z,100485.02
2018-10-09T17:46:40.348Z,100489.88
2018-10-09T17:49:10.155Z,100498.49
2018-10-09T17:51:39.292Z,100491.45
2018-10-09T17:54:09.233Z,100500.06
2018-10-09T17:56:38.558Z,100496.62
2018-10-09T17:59:08.544Z,100503.36
2018-10-09T18:01:38.772Z,100502.53
2018-10-09T18:04:07.962Z,100500.36
2018-10-09T18:06:37.028Z,100505.75
2018-10-09T18:09:10.043Z,100510.32
2018-10-09T18:11:39.481Z,100516.53
2018-10-09T18:14:09.496Z,100516.84
2018-10-09T18:16:38.798Z,100524.17
2018-10-09T18:19:10.289Z,100520.95
2018-10-09T18:21:39.620Z,100527.20
2018-10-09T18:24:09.920Z,100527.77
2018-10-09T18:26:39.115Z,100521.89
2018-10-09T18:29:08.643Z,100531.41
2018-10-09T18:31:37.956Z,100530.66
2018-10-09T18:34:08.022Z,100525.86
2018-10-09T18:36:38.624Z,100513.20
2018-10-09T18:39:12.582Z,100516.95
2018-10-09T18:41:41.961Z,100524.58
2018-10-09T18:44:11.514Z,100524.28
2018-10-09T18:46:41.330Z,100519.72
2018-10-09T18:49:11.893Z,100504.89
2018-10-09T18:51:42.037Z,100511.33
2018-10-09T18:54:11.813Z,100514.02
2018-10-09T18:56:41.698Z,100518.82
2018-10-09T18:59:11.333Z,100518.52
2018-10-09T19:01:41.614Z,100528.78
2018-10-09T19:04:10.721Z,100532.59
2018-10-09T19:06:41.404Z,100537.91
2018-10-09T19:09:11.990Z,100538.66
2018-10-09T19:11:41.541Z,100546.45
2018-10-09T19:14:11.212Z,100543.45
2018-10-09T19:16:40.919Z,100534.50
2018-10-09T19:19:10.536Z,100544.98
2018-10-09T19:21:42.112Z,100547.01
2018-10-09T19:24:11.445Z,100552.32
2018-10-09T19:26:40.906Z,100559.36
2018-10-09T19:29:10.028Z,100559.28
2018-10-09T19:31:39.272Z,100572.23
2018-10-09T19:34:08.918Z,100568.27
2018-10-09T19:36:40.148Z,100565.58
2018-10-09T19:39:11.863Z,100569.84
2018-10-09T19:41:41.413Z,100558.31
2018-10-09T19:44:10.966Z,100566.39
2018-10-09T19:46:40.499Z,100553.74
2018-10-09T19:49:10.774Z,100564.52
2018-10-09T19:51:45.447Z,100564.52
2018-10-09T19:54:15.272Z,100569.09
2018-10-09T19:56:44.687Z,100572.61
2018-10-09T19:59:14.576Z,100566.09
2018-10-09T20:01:45.711Z,100565.80
2018-10-09T20:04:14.796Z,100577.10
2018-10-09T20:06:43.678Z,100580.09
2018-10-09T20:09:14.101Z,100582.49
2018-10-09T20:11:44.942Z,100586.23
2018-10-09T20:14:14.660Z,100586.84
2018-10-09T20:16:44.418Z,100584.14
2018-10-09T20:19:14.271Z,100583.02
2018-10-09T20:21:43.528Z,100590.72
2018-10-09T20:24:13.449Z,100592.89
2018-10-09T20:26:42.436Z,100593.72
2018-10-09T20:29:11.505Z,100581.59
2018-10-09T20:31:40.602Z,100586.41
2018-10-09T20:34:10.308Z,100583.11
2018-10-09T20:36:40.485Z,100586.17
2018-10-09T20:39:09.596Z,100583.63
2018-10-09T20:41:38.712Z,100589.48
2018-10-09T20:44:08.668Z,100587.23
2018-10-09T20:46:38.322Z,100575.11
2018-10-09T20:49:07.990Z,100584.77
2018-10-09T20:51:37.301Z,100583.80
2018-10-09T20:54:07.319Z,100585.75
2018-10-09T20:56:36.502Z,100587.09
2018-10-09T20:59:06.552Z,100588.97
2018-10-09T21:01:36.358Z,100577.41
2018-10-09T21:04:05.357Z,100585.80
2018-10-09T21:06:34.497Z,100597.40
2018-10-09T21:09:05.531Z,100602.73
2018-10-09T21:11:34.592Z,100591.88
2018-10-09T21:14:03.691Z,100606.23
2018-10-09T21:16:33.630Z,100599.12
2018-10-09T21:19:03.399Z,100597.64
2018-10-09T21:21:32.920Z,100599.95
2018-10-09T21:24:02.420Z,100591.79
2018-10-09T21:26:32.382Z,100603.30
2018-10-09T21:29:01.383Z,100586.79
2018-10-09T21:31:30.533Z,100590.97
2018-10-09T21:34:00.690Z,100586.33
2018-10-09T21:36:29.697Z,100588.33
2018-10-09T21:38:59.268Z,100580.20
2018-10-09T21:41:28.266Z,100589.32
2018-10-09T21:43:58.479Z,100584.98
2018-10-09T21:46:28.529Z,100592.23
2018-10-09T21:48:58.077Z,100584.45
2018-10-09T21:51:26.992Z,100589.63
2018-10-09T21:56:57.378Z,100596.95
2018-10-09T21:59:32.813Z,100596.87
2018-10-09T22:02:27.825Z,100600.83
2018-10-09T22:07:50.173Z,100602.97
2018-10-09T22:10:29.660Z,100614.20
2018-10-09T22:22:03.631Z,100593.36
2018-10-09T22:24:56.983Z,100600.31
2018-10-09T22:30:43.031Z,100598.88
2018-10-09T22:33:18.676Z,100600.44
2018-10-09T22:35:57.844Z,100598.58
2018-10-09T22:38:30.915Z,100594.23
2018-10-09T22:41:01.262Z,100581.59
2018-10-09T22:43:36.691Z,100587.20
2018-10-09T22:46:17.571Z,100593.11
2018-10-09T22:48:50.901Z,100596.92
2018-10-09T22:51:31.847Z,100596.19
2018-10-09T22:54:27.831Z,100590.58
2018-10-09T22:57:02.681Z,100611.30
2018-10-09T22:59:55.135Z,100615.64
2018-10-09T23:02:32.317Z,100621.94
2018-10-09T23:05:27.768Z,100618.77
2018-10-09T23:08:17.121Z,100621.64
2018-10-09T23:10:54.589Z,100622.02
2018-10-09T23:13:41.065Z,100627.02
2018-10-09T23:16:26.993Z,100631.06
2018-10-09T23:19:00.910Z,100640.44
2018-10-09T23:24:30.385Z,100643.56
2018-10-09T23:27:16.781Z,100651.43
2018-10-09T23:33:00.437Z,100646.29
2018-10-09T23:35:41.414Z,100647.72
2018-10-09T23:38:37.427Z,100650.41
2018-10-09T23:44:08.618Z,100666.94
2018-10-09T23:46:41.589Z,100657.80
2018-10-09T23:49:11.452Z,100660.36
2018-10-09T23:51:40.675Z,100652.88
2018-10-09T23:54:10.804Z,100665.61
2018-10-09T23:56:44.665Z,100662.61
2018-10-09T23:59:15.151Z,100670.48
